Empalme Querandies, Argentina
Current Conditions -  °F | °C
As of 4:00 AM on Wednesday 26 Nov 2014 (Local Time) from SAZM Reporting Station
Clear Clear  
Wind Chill: 50°   Ceiling: Unl
Heat Index: 50°   Visibility: 6mi
Dew Point: 48°   Wind: 8mph
Humidity: 94%   Direction: 340°NNW
Pressure: 29.91"   Gusts: NA
Location:  36.93°S, 60.31°W
Report Text: SAZM 260700Z 34007KT CAVOK 10/09 Q1013
Loading
Personal Weather Stations






























Interactive Weather Map New forecast layout! Learn more

10-Day Weather Forecast

Advertisements
Track Severe Weather on mobile